createdAt,value
2018-07-21T00:00:42.785Z,22.86
2018-07-21T00:03:12.284Z,22.72
2018-07-21T00:05:41.417Z,22.69
2018-07-21T00:08:10.652Z,22.72
2018-07-21T00:10:39.828Z,22.69
2018-07-21T00:13:09.037Z,22.68
2018-07-21T00:15:38.209Z,22.62
2018-07-21T00:18:07.444Z,22.56
2018-07-21T00:20:36.642Z,22.38
2018-07-21T00:23:05.840Z,22.27
2018-07-21T00:25:35.144Z,22.18
2018-07-21T00:28:04.320Z,22.08
2018-07-21T00:30:33.592Z,21.98
2018-07-21T00:33:03.102Z,21.92
2018-07-21T00:35:32.258Z,21.70
2018-07-21T00:38:01.520Z,21.54
2018-07-21T00:40:30.862Z,21.69
2018-07-21T00:43:00.000Z,21.61
2018-07-21T00:45:29.169Z,21.68
2018-07-21T00:47:58.301Z,21.52
2018-07-21T00:50:27.460Z,21.49
2018-07-21T00:52:56.616Z,21.51
2018-07-21T00:55:25.812Z,21.20
2018-07-21T00:57:55.073Z,20.97
2018-07-21T01:00:24.305Z,21.34
2018-07-21T01:02:53.432Z,21.40
2018-07-21T01:05:22.698Z,21.37
2018-07-21T01:07:51.824Z,21.18
2018-07-21T01:10:21.107Z,21.31
2018-07-21T01:12:50.248Z,21.19
2018-07-21T01:15:19.534Z,21.16
2018-07-21T01:17:48.733Z,21.26
2018-07-21T01:20:17.942Z,21.07
2018-07-21T01:22:47.104Z,21.03
2018-07-21T01:25:16.277Z,21.11
2018-07-21T01:27:45.432Z,21.07
2018-07-21T01:30:14.678Z,21.11
2018-07-21T01:32:43.933Z,21.12
2018-07-21T01:35:13.160Z,21.18
2018-07-21T01:37:42.474Z,21.12
2018-07-21T01:40:11.660Z,21.12
2018-07-21T01:42:40.791Z,21.13
2018-07-21T01:45:10.032Z,21.17
2018-07-21T01:47:39.212Z,21.19
2018-07-21T01:50:08.457Z,21.18
2018-07-21T01:52:37.776Z,21.11
2018-07-21T01:55:07.367Z,21.02
2018-07-21T01:57:36.507Z,20.93
2018-07-21T02:00:06.196Z,20.95
2018-07-21T02:02:35.324Z,20.91
2018-07-21T02:05:04.932Z,20.78
2018-07-21T02:07:34.116Z,20.83
2018-07-21T02:10:03.394Z,20.80
2018-07-21T02:12:33.572Z,20.90
2018-07-21T02:15:03.059Z,20.86
2018-07-21T02:17:32.257Z,20.76
2018-07-21T02:20:01.441Z,20.71
2018-07-21T02:22:30.711Z,20.74
2018-07-21T02:24:59.969Z,20.67
2018-07-21T02:27:29.244Z,20.53
2018-07-21T02:29:58.501Z,20.42
2018-07-21T02:32:27.739Z,20.16
2018-07-21T02:34:56.977Z,20.14
2018-07-21T02:37:26.231Z,20.07
2018-07-21T02:39:55.491Z,20.01
2018-07-21T02:42:24.641Z,19.98
2018-07-21T02:44:53.968Z,20.08
2018-07-21T02:47:23.120Z,20.02
2018-07-21T02:49:52.385Z,20.23
2018-07-21T02:52:21.617Z,20.18
2018-07-21T02:54:50.808Z,20.18
2018-07-21T02:57:19.952Z,20.19
2018-07-21T02:59:49.129Z,20.17
2018-07-21T03:02:18.258Z,20.19
2018-07-21T03:04:47.504Z,20.10
2018-07-21T03:07:16.913Z,19.80
2018-07-21T03:09:46.225Z,19.42
2018-07-21T03:12:15.390Z,19.54
2018-07-21T03:14:44.557Z,19.43
2018-07-21T03:17:13.849Z,19.46
2018-07-21T03:19:43.045Z,19.49
2018-07-21T03:22:12.301Z,19.48
2018-07-21T03:24:42.253Z,19.49
2018-07-21T03:27:11.373Z,19.51
2018-07-21T03:29:40.544Z,19.49
2018-07-21T03:32:09.741Z,19.58
2018-07-21T03:34:38.929Z,19.52
2018-07-21T03:37:08.100Z,19.50
2018-07-21T03:39:37.251Z,19.48
2018-07-21T03:42:06.490Z,19.57
2018-07-21T03:44:35.746Z,19.72
2018-07-21T03:47:04.989Z,19.68
2018-07-21T03:49:34.132Z,19.74
2018-07-21T03:52:03.552Z,19.79
2018-07-21T03:54:32.773Z,19.66
2018-07-21T03:57:02.022Z,19.83
2018-07-21T03:59:31.149Z,19.77
2018-07-21T04:02:00.420Z,19.65
2018-07-21T04:04:29.576Z,19.65
2018-07-21T04:06:58.914Z,19.59
2018-07-21T04:09:28.026Z,19.52
2018-07-21T04:11:57.192Z,19.61
2018-07-21T04:14:26.320Z,19.62
2018-07-21T04:16:55.500Z,19.66
2018-07-21T04:19:24.640Z,19.65
2018-07-21T04:21:53.911Z,19.68
2018-07-21T04:24:23.034Z,19.83
2018-07-21T04:26:52.214Z,20.02
2018-07-21T04:29:21.337Z,20.14
2018-07-21T04:31:50.647Z,20.14
2018-07-21T04:34:19.984Z,20.21
2018-07-21T04:36:49.133Z,20.19
2018-07-21T04:39:18.476Z,20.24
2018-07-21T04:41:47.612Z,20.41
2018-07-21T04:44:16.776Z,20.58
2018-07-21T04:46:45.950Z,20.55
2018-07-21T04:49:15.158Z,20.52
2018-07-21T04:51:44.381Z,20.58
2018-07-21T04:54:13.575Z,20.60
2018-07-21T04:56:42.704Z,20.57
2018-07-21T04:59:11.867Z,20.74
2018-07-21T05:01:41.033Z,20.90
2018-07-21T05:04:10.389Z,21.01
2018-07-21T05:06:39.704Z,21.28
2018-07-21T05:09:10.733Z,21.69
2018-07-21T05:11:39.960Z,21.75
2018-07-21T05:14:09.513Z,21.98
2018-07-21T05:16:39.636Z,22.26
2018-07-21T05:19:08.824Z,22.40
2018-07-21T05:21:38.159Z,22.59
2018-07-21T05:24:07.435Z,22.83
2018-07-21T05:26:36.585Z,22.87
2018-07-21T05:29:05.785Z,22.85
2018-07-21T05:31:35.050Z,22.78
2018-07-21T05:34:04.343Z,22.71
2018-07-21T05:36:33.479Z,22.71
2018-07-21T05:39:02.951Z,22.80
2018-07-21T05:41:32.070Z,22.82
2018-07-21T05:44:01.233Z,22.86
2018-07-21T05:46:30.374Z,22.79
2018-07-21T05:48:59.573Z,23.07
2018-07-21T05:51:28.869Z,23.29
2018-07-21T05:53:58.080Z,23.50
2018-07-21T05:56:27.240Z,23.56
2018-07-21T05:58:56.511Z,23.51
2018-07-21T06:01:25.684Z,23.39
2018-07-21T06:03:54.853Z,23.34
2018-07-21T06:06:24.075Z,23.59
2018-07-21T06:08:53.318Z,23.71
2018-07-21T06:11:22.491Z,23.86
2018-07-21T06:13:51.722Z,23.89
2018-07-21T06:16:21.160Z,23.97
2018-07-21T06:18:50.308Z,24.07
2018-07-21T06:21:19.526Z,24.03
2018-07-21T06:23:48.739Z,24.18
2018-07-21T06:26:18.009Z,24.38
2018-07-21T06:28:47.253Z,24.65
2018-07-21T06:31:16.409Z,24.82
2018-07-21T06:33:45.605Z,24.90
2018-07-21T06:36:15.559Z,24.85
2018-07-21T06:38:44.689Z,24.99
2018-07-21T06:41:13.937Z,25.12
2018-07-21T06:43:43.106Z,25.36
2018-07-21T06:46:12.270Z,25.38
2018-07-21T06:48:41.500Z,25.54
2018-07-21T06:51:10.760Z,25.73
2018-07-21T06:53:39.913Z,25.87
2018-07-21T06:56:09.236Z,25.83
2018-07-21T06:58:38.460Z,26.12
2018-07-21T07:01:08.038Z,26.16
2018-07-21T07:03:37.209Z,26.23
2018-07-21T07:06:06.381Z,26.17
2018-07-21T07:08:35.728Z,26.25
2018-07-21T07:11:04.964Z,26.43
2018-07-21T07:13:34.231Z,26.60
2018-07-21T07:16:03.412Z,26.55
2018-07-21T07:18:32.624Z,26.64
2018-07-21T07:21:01.785Z,26.79
2018-07-21T07:23:31.083Z,26.78
2018-07-21T07:26:00.300Z,26.94
2018-07-21T07:28:29.516Z,26.92
2018-07-21T07:30:58.737Z,27.01
2018-07-21T07:33:28.014Z,27.01
2018-07-21T07:35:57.163Z,26.88
2018-07-21T07:38:26.508Z,26.65
2018-07-21T07:40:55.660Z,26.75
2018-07-21T07:43:24.917Z,26.96
2018-07-21T07:45:54.161Z,26.84
2018-07-21T07:48:23.397Z,26.80
2018-07-21T07:50:52.579Z,26.77
2018-07-21T07:53:21.808Z,26.67
2018-07-21T07:55:50.936Z,26.75
2018-07-21T07:58:20.212Z,26.84
2018-07-21T08:00:49.473Z,26.75
2018-07-21T08:03:18.709Z,26.77
2018-07-21T08:05:47.953Z,26.96
2018-07-21T08:08:17.189Z,26.98
2018-07-21T08:10:46.357Z,27.23
2018-07-21T08:13:15.545Z,27.44
2018-07-21T08:15:44.702Z,27.48
2018-07-21T08:18:13.864Z,27.63
2018-07-21T08:20:43.093Z,27.97
2018-07-21T08:23:12.400Z,27.88
2018-07-21T08:25:41.776Z,27.88
2018-07-21T08:28:10.893Z,27.95
2018-07-21T08:30:40.079Z,27.98
2018-07-21T08:33:09.266Z,27.89
2018-07-21T08:35:38.460Z,28.05
2018-07-21T08:38:07.638Z,28.26
2018-07-21T08:40:36.798Z,28.32
2018-07-21T08:43:05.997Z,28.66
2018-07-21T08:45:35.158Z,28.75
2018-07-21T08:48:04.324Z,28.72
2018-07-21T08:50:33.537Z,28.81
2018-07-21T08:53:02.696Z,28.83
2018-07-21T08:55:31.955Z,28.90
2018-07-21T08:58:01.129Z,29.01
2018-07-21T09:00:30.304Z,29.17
2018-07-21T09:03:00.356Z,29.41
2018-07-21T09:05:29.642Z,29.62
2018-07-21T09:07:58.842Z,29.88
2018-07-21T09:10:28.002Z,30.21
2018-07-21T09:12:57.129Z,30.17
2018-07-21T09:15:26.324Z,30.26
2018-07-21T09:17:55.481Z,30.02
2018-07-21T09:20:24.740Z,29.58
2018-07-21T09:22:53.920Z,29.35
2018-07-21T09:25:23.089Z,29.31
2018-07-21T09:27:52.266Z,29.30
2018-07-21T09:30:21.453Z,28.98
2018-07-21T09:32:50.637Z,28.93
2018-07-21T09:35:19.809Z,28.66
2018-07-21T09:37:49.024Z,28.78
2018-07-21T09:40:18.560Z,28.78
2018-07-21T09:42:47.758Z,28.89
2018-07-21T09:45:17.108Z,29.00
2018-07-21T09:47:46.277Z,27.34
2018-07-21T09:50:15.468Z,29.02
2018-07-21T09:52:44.656Z,28.89
2018-07-21T09:55:13.896Z,28.64
2018-07-21T09:57:43.241Z,28.81
2018-07-21T10:00:13.818Z,28.91
2018-07-21T10:02:42.924Z,28.90
2018-07-21T10:05:12.269Z,28.93
2018-07-21T10:07:41.420Z,28.92
2018-07-21T10:10:10.797Z,28.73
2018-07-21T10:12:39.968Z,28.64
2018-07-21T10:15:09.246Z,28.45
2018-07-21T10:17:38.417Z,28.47
2018-07-21T10:20:07.744Z,28.68
2018-07-21T10:22:36.960Z,28.68
2018-07-21T10:25:11.452Z,28.83
2018-07-21T10:27:45.881Z,28.89
2018-07-21T10:30:15.154Z,28.97
2018-07-21T10:32:44.350Z,28.78
2018-07-21T10:35:13.559Z,28.71
2018-07-21T10:37:42.801Z,28.67
2018-07-21T10:40:12.066Z,28.74
2018-07-21T10:42:41.413Z,28.82
2018-07-21T10:45:10.645Z,28.86
2018-07-21T10:47:39.901Z,28.81
2018-07-21T10:50:09.136Z,28.74
2018-07-21T10:52:38.296Z,28.65
2018-07-21T10:55:07.568Z,28.58
2018-07-21T10:57:36.785Z,28.16
2018-07-21T11:00:07.402Z,28.01
2018-07-21T11:02:36.649Z,28.00
2018-07-21T11:05:06.733Z,27.87
2018-07-21T11:07:36.076Z,27.57
2018-07-21T11:10:05.708Z,27.53
2018-07-21T11:12:34.985Z,27.34
2018-07-21T11:15:04.795Z,27.49
2018-07-21T11:17:34.607Z,27.58
2018-07-21T11:20:04.305Z,27.49
2018-07-21T11:22:33.512Z,27.28
2018-07-21T11:25:03.052Z,27.38
2018-07-21T11:27:32.339Z,27.40
2018-07-21T11:30:01.474Z,27.14
2018-07-21T11:32:30.712Z,26.71
2018-07-21T11:35:00.019Z,26.76
2018-07-21T11:37:29.209Z,26.58
2018-07-21T11:39:58.375Z,26.44
2018-07-21T11:42:27.712Z,26.14
2018-07-21T11:44:56.964Z,25.98
2018-07-21T11:47:26.820Z,25.57
2018-07-21T11:49:55.938Z,25.86
2018-07-21T11:52:25.259Z,26.03
2018-07-21T11:54:54.377Z,25.84
2018-07-21T11:57:23.608Z,26.10
2018-07-21T11:59:52.757Z,25.69
2018-07-21T12:02:22.015Z,26.17
2018-07-21T12:04:51.336Z,26.11
2018-07-21T12:07:20.739Z,25.52
2018-07-21T12:09:49.951Z,25.58
2018-07-21T12:12:19.214Z,25.47
2018-07-21T12:14:48.347Z,25.50
2018-07-21T12:17:17.600Z,25.47
2018-07-21T12:19:46.944Z,25.41
2018-07-21T12:22:16.189Z,25.40
2018-07-21T12:24:45.380Z,25.12
2018-07-21T12:27:14.568Z,24.71
2018-07-21T12:29:43.712Z,24.47
2018-07-21T12:32:13.265Z,24.07
2018-07-21T12:34:42.481Z,23.92
2018-07-21T12:37:11.677Z,24.01
2018-07-21T12:39:40.903Z,24.03
2018-07-21T12:42:10.165Z,23.89
2018-07-21T12:44:39.533Z,23.87
2018-07-21T12:47:08.752Z,23.67
2018-07-21T12:49:38.696Z,23.78
2018-07-21T12:52:07.851Z,23.60
2018-07-21T12:54:37.096Z,23.66
2018-07-21T12:57:06.573Z,23.28
2018-07-21T12:59:35.737Z,23.34
2018-07-21T13:02:04.968Z,23.17
2018-07-21T13:04:35.283Z,22.95
2018-07-21T13:07:04.493Z,23.01
2018-07-21T13:09:33.829Z,23.22
2018-07-21T13:12:02.985Z,22.99
2018-07-21T13:14:32.227Z,22.96
2018-07-21T13:17:01.381Z,23.16
2018-07-21T13:19:30.596Z,23.36
2018-07-21T13:21:59.761Z,23.11
2018-07-21T13:24:28.992Z,23.46
2018-07-21T13:26:58.152Z,23.49
2018-07-21T13:29:28.416Z,23.43
2018-07-21T13:31:57.712Z,23.47
2018-07-21T13:34:26.884Z,23.74
2018-07-21T13:36:56.099Z,23.90
2018-07-21T13:39:25.297Z,24.16
2018-07-21T13:41:54.464Z,24.21
2018-07-21T13:44:23.744Z,24.10
2018-07-21T13:46:53.016Z,24.07
2018-07-21T13:49:22.206Z,24.14
2018-07-21T13:51:51.349Z,24.15
2018-07-21T13:54:20.812Z,24.26
2018-07-21T13:56:50.125Z,24.29
2018-07-21T13:59:19.396Z,24.24
2018-07-21T14:01:48.520Z,24.33
2018-07-21T14:04:17.788Z,24.40
2018-07-21T14:06:46.975Z,24.54
2018-07-21T14:09:16.203Z,24.48
2018-07-21T14:11:45.441Z,24.47
2018-07-21T14:14:14.781Z,24.62
2018-07-21T14:16:43.943Z,24.71
2018-07-21T14:19:13.169Z,24.72
2018-07-21T14:21:42.330Z,24.58
2018-07-21T14:24:11.571Z,24.49
2018-07-21T14:26:40.784Z,24.40
2018-07-21T14:29:10.158Z,24.67
2018-07-21T14:31:39.291Z,24.67
2018-07-21T14:34:08.600Z,24.55
2018-07-21T14:36:37.868Z,24.70
2018-07-21T14:39:09.478Z,24.66
2018-07-21T14:41:39.367Z,24.63
2018-07-21T14:44:09.060Z,24.70
2018-07-21T14:46:39.158Z,24.67
2018-07-21T14:49:08.380Z,24.66
2018-07-21T14:51:37.509Z,24.61
2018-07-21T14:54:06.942Z,24.62
2018-07-21T14:56:36.078Z,24.54
2018-07-21T14:59:05.349Z,24.36
2018-07-21T15:01:34.532Z,24.06
2018-07-21T15:04:03.858Z,23.93
2018-07-21T15:06:33.000Z,23.76
2018-07-21T15:09:02.260Z,23.81
2018-07-21T15:11:31.410Z,23.84
2018-07-21T15:14:00.659Z,23.95
2018-07-21T15:16:29.810Z,23.95
2018-07-21T15:18:58.981Z,23.97
2018-07-21T15:21:28.183Z,24.01
2018-07-21T15:23:57.409Z,23.96
2018-07-21T15:26:26.521Z,24.03
2018-07-21T15:28:55.774Z,24.16
2018-07-21T15:31:24.997Z,24.15
2018-07-21T15:33:54.378Z,24.13
2018-07-21T15:36:23.577Z,24.10
2018-07-21T15:38:52.814Z,24.31
2018-07-21T15:41:22.836Z,24.28
2018-07-21T15:43:53.179Z,24.28
2018-07-21T15:46:22.305Z,24.29
2018-07-21T15:48:51.627Z,24.36
2018-07-21T15:51:20.866Z,24.41
2018-07-21T15:53:49.990Z,24.31
2018-07-21T15:56:19.239Z,24.31
2018-07-21T15:58:48.404Z,24.50
2018-07-21T16:01:17.768Z,24.31
2018-07-21T16:03:47.164Z,24.37
2018-07-21T16:06:16.359Z,24.22
2018-07-21T16:08:45.649Z,24.01
2018-07-21T16:11:14.833Z,24.00
2018-07-21T16:13:44.028Z,24.19
2018-07-21T16:16:13.280Z,24.26
2018-07-21T16:18:42.519Z,24.26
2018-07-21T16:21:11.682Z,24.39
2018-07-21T16:23:40.921Z,24.43
2018-07-21T16:26:10.088Z,24.38
2018-07-21T16:28:39.272Z,24.37
2018-07-21T16:31:08.381Z,24.36
2018-07-21T16:33:37.720Z,24.27
2018-07-21T16:36:06.858Z,24.20
2018-07-21T16:38:35.968Z,24.33
2018-07-21T16:41:05.301Z,24.35
2018-07-21T16:43:34.428Z,24.27
2018-07-21T16:46:04.054Z,24.25
2018-07-21T16:48:33.181Z,24.32
2018-07-21T16:51:02.501Z,24.40
2018-07-21T16:53:31.656Z,24.29
2018-07-21T16:56:01.000Z,24.23
2018-07-21T16:58:30.504Z,24.18
2018-07-21T17:00:59.804Z,24.23
2018-07-21T17:03:28.954Z,24.27
2018-07-21T17:05:58.181Z,24.27
2018-07-21T17:08:27.613Z,24.26
2018-07-21T17:10:56.767Z,24.15
2018-07-21T17:13:25.937Z,24.06
2018-07-21T17:15:55.181Z,24.03
2018-07-21T17:18:24.333Z,23.95
2018-07-21T17:20:53.585Z,23.95
2018-07-21T17:23:22.856Z,22.28
2018-07-21T17:25:52.086Z,23.89
2018-07-21T17:28:21.314Z,23.83
2018-07-21T17:30:50.576Z,23.51
2018-07-21T17:33:20.974Z,23.67
2018-07-21T17:35:50.321Z,23.72
2018-07-21T17:38:19.582Z,23.50
2018-07-21T17:40:49.621Z,23.54
2018-07-21T17:43:18.776Z,23.57
2018-07-21T17:45:48.013Z,23.61
2018-07-21T17:48:17.288Z,23.65
2018-07-21T17:50:46.457Z,23.56
2018-07-21T17:53:15.621Z,23.60
2018-07-21T17:55:44.792Z,23.49
2018-07-21T17:58:14.156Z,23.47
2018-07-21T18:00:43.404Z,23.44
2018-07-21T18:03:12.559Z,23.38
2018-07-21T18:05:41.900Z,23.47
2018-07-21T18:08:11.049Z,23.42
2018-07-21T18:10:40.193Z,23.18
2018-07-21T18:13:09.357Z,23.31
2018-07-21T18:15:38.686Z,23.30
2018-07-21T18:18:07.978Z,23.19
2018-07-21T18:20:37.140Z,23.02
2018-07-21T18:23:06.391Z,23.07
2018-07-21T18:25:35.742Z,23.07
2018-07-21T18:28:05.086Z,23.08
2018-07-21T18:30:34.266Z,23.03
2018-07-21T18:33:03.497Z,23.05
2018-07-21T18:35:32.791Z,23.13
2018-07-21T18:38:01.939Z,23.06
2018-07-21T18:40:31.076Z,23.11
2018-07-21T18:43:00.290Z,23.08
2018-07-21T18:45:29.473Z,23.11
2018-07-21T18:47:58.665Z,23.10
2018-07-21T18:50:27.816Z,22.93
2018-07-21T18:52:57.055Z,22.82
2018-07-21T18:55:26.222Z,22.67
2018-07-21T18:57:55.385Z,22.44
2018-07-21T19:00:24.605Z,22.42
2018-07-21T19:02:53.838Z,22.36
2018-07-21T19:05:23.004Z,22.45
2018-07-21T19:07:52.240Z,22.39
2018-07-21T19:10:21.391Z,22.38
2018-07-21T19:12:50.912Z,22.44
2018-07-21T19:15:25.397Z,22.46
2018-07-21T19:17:54.592Z,22.45
2018-07-21T19:20:29.019Z,22.46
2018-07-21T19:22:58.213Z,22.14
2018-07-21T19:25:32.701Z,22.11
2018-07-21T19:28:01.894Z,22.22
2018-07-21T19:30:31.093Z,20.33
2018-07-21T19:33:01.449Z,22.21
2018-07-21T19:35:31.958Z,21.96
2018-07-21T19:38:01.246Z,21.99
2018-07-21T19:40:30.406Z,22.12
2018-07-21T19:42:59.636Z,22.07
2018-07-21T19:45:28.798Z,22.07
2018-07-21T19:47:58.089Z,22.12
2018-07-21T19:50:27.285Z,22.09
2018-07-21T19:52:56.532Z,22.18
2018-07-21T19:55:25.684Z,22.34
2018-07-21T19:57:54.844Z,22.37
2018-07-21T20:00:24.084Z,22.38
2018-07-21T20:02:53.419Z,22.33
2018-07-21T20:05:22.799Z,22.32
2018-07-21T20:07:52.042Z,22.35
2018-07-21T20:10:21.204Z,22.31
2018-07-21T20:12:50.352Z,22.33
2018-07-21T20:15:19.615Z,22.26
2018-07-21T20:17:48.905Z,22.32
2018-07-21T20:20:18.684Z,22.35
2018-07-21T20:22:47.913Z,22.26
2018-07-21T20:25:17.085Z,22.25
2018-07-21T20:27:46.308Z,22.26
2018-07-21T20:30:15.938Z,22.28
2018-07-21T20:32:45.148Z,22.29
2018-07-21T20:35:14.447Z,22.17
2018-07-21T20:37:43.623Z,22.12
2018-07-21T20:40:12.821Z,22.09
2018-07-21T20:42:42.115Z,22.09
2018-07-21T20:45:11.345Z,22.07
2018-07-21T20:47:40.517Z,22.08
2018-07-21T20:50:09.704Z,22.10
2018-07-21T20:52:38.893Z,22.11
2018-07-21T20:55:08.096Z,22.03
2018-07-21T20:57:37.297Z,22.11
2018-07-21T21:00:07.013Z,22.10
2018-07-21T21:02:36.303Z,22.12
2018-07-21T21:05:05.597Z,21.92
2018-07-21T21:07:34.801Z,21.99
2018-07-21T21:10:04.299Z,22.01
2018-07-21T21:12:33.444Z,22.00
2018-07-21T21:15:02.720Z,22.02
2018-07-21T21:17:31.913Z,22.06
2018-07-21T21:20:01.187Z,21.98
2018-07-21T21:22:30.401Z,22.04
2018-07-21T21:24:59.626Z,22.05
2018-07-21T21:27:29.917Z,21.99
2018-07-21T21:29:59.108Z,21.97
2018-07-21T21:32:28.433Z,21.99
2018-07-21T21:34:57.643Z,21.91
2018-07-21T21:37:26.785Z,21.96
2018-07-21T21:39:56.009Z,22.03
2018-07-21T21:42:25.240Z,21.96
2018-07-21T21:44:54.400Z,22.03
2018-07-21T21:47:23.556Z,22.23
2018-07-21T21:49:52.791Z,22.03
2018-07-21T21:52:22.049Z,21.95
2018-07-21T21:54:51.292Z,21.98
2018-07-21T21:57:20.466Z,21.96
2018-07-21T21:59:49.684Z,21.95
2018-07-21T22:02:18.949Z,21.99
2018-07-21T22:04:48.202Z,22.06
2018-07-21T22:07:17.437Z,21.95
2018-07-21T22:09:46.707Z,22.05
2018-07-21T22:12:15.961Z,22.08
2018-07-21T22:14:45.135Z,21.89
2018-07-21T22:17:14.325Z,21.86
2018-07-21T22:19:43.557Z,21.80
2018-07-21T22:22:12.703Z,21.83
2018-07-21T22:24:41.956Z,21.79
2018-07-21T22:27:11.114Z,21.74
2018-07-21T22:29:42.132Z,21.79
2018-07-21T22:32:14.138Z,21.82
2018-07-21T22:34:43.298Z,21.77
2018-07-21T22:37:12.453Z,21.75
2018-07-21T22:39:41.642Z,21.84
2018-07-21T22:42:10.852Z,21.96
2018-07-21T22:44:40.854Z,22.03
2018-07-21T22:47:10.394Z,22.03
2018-07-21T22:49:39.524Z,22.03
2018-07-21T22:52:08.766Z,22.00
2018-07-21T22:54:37.909Z,22.01
2018-07-21T22:57:07.089Z,21.84
2018-07-21T22:59:36.341Z,21.47
2018-07-21T23:02:06.806Z,21.55
2018-07-21T23:04:36.340Z,21.55
2018-07-21T23:07:05.737Z,21.12
2018-07-21T23:09:34.870Z,21.29
2018-07-21T23:12:04.235Z,21.51
2018-07-21T23:14:33.371Z,21.66
2018-07-21T23:17:02.578Z,21.68
2018-07-21T23:19:31.726Z,21.71
2018-07-21T23:22:00.913Z,21.71
2018-07-21T23:24:30.373Z,21.58
2018-07-21T23:26:59.542Z,21.52
2018-07-21T23:29:29.018Z,21.53
2018-07-21T23:31:58.638Z,21.45
2018-07-21T23:34:28.755Z,21.37
2018-07-21T23:36:57.956Z,21.31
2018-07-21T23:39:27.091Z,21.46
2018-07-21T23:41:56.286Z,21.41
2018-07-21T23:44:25.512Z,21.03
2018-07-21T23:46:54.670Z,20.91
2018-07-21T23:49:23.780Z,21.00
2018-07-21T23:51:53.010Z,20.99
2018-07-21T23:54:22.149Z,20.94
2018-07-21T23:56:51.308Z,20.90
2018-07-21T23:59:20.482Z,20.95
